Аэропорт: Шпаковское. Ставрополь

ICAO: URMT

METAR:
2019/05/26 14:00
URMT 261400Z 29003MPS 9999 SCT034CB 21/12 Q1014 R25/150060 NOSIG RMK QFE722
METAR:
2019/04/03 09:21
TAF COR TAF URMT 030800Z 0309/0321 28007G13MPS 9999 SCT011 BKN020 
      TEMPO 0309/0315 3100 BR BKN007 BKN020